Time;durP1;ratioP1;P1;durP2;ratioP2;P2;SDS_P1;SDS_P2;PMS_P1;PMS_P2;Temp;Humidity;BMP_temperature;BMP_pressure;BME280_temperature;BME280_humidity;BME280_pressure;Samples;Min_cycle;Max_cycle;Signal;HPM_P1;HPM_P2
2021/12/30 00:00:14;;;;;;;35.42;4.40;;;7.90;99.90;;;;;;4869710;29;20055;-59
2021/12/30 00:02:41;;;;;;;31.92;4.78;;;7.90;99.90;;;;;;4885078;29;20045;-60
2021/12/30 00:05:08;;;;;;;33.90;4.80;;;7.90;99.90;;;;;;4885622;29;20051;-59
2021/12/30 00:07:34;;;;;;;34.42;5.05;;;7.80;99.90;;;;;;4866374;29;20067;-60
2021/12/30 00:10:00;;;;;;;38.70;5.50;;;7.80;99.90;;;;;;4885320;29;20056;-60
2021/12/30 00:12:26;;;;;;;41.17;5.45;;;7.80;99.90;;;;;;4886626;29;20048;-59
2021/12/30 00:14:52;;;;;;;32.70;5.20;;;7.80;99.90;;;;;;4870033;29;20112;-60
2021/12/30 00:17:18;;;;;;;39.65;5.18;;;7.80;99.90;;;;;;4885454;29;20425;-60
2021/12/30 00:19:44;;;;;;;45.33;5.35;;;7.80;99.90;;;;;;4868244;29;20196;-59
2021/12/30 00:22:09;;;;;;;50.15;6.65;;;7.90;99.90;;;;;;4883733;29;20055;-60
2021/12/30 00:24:35;;;;;;;49.22;6.65;;;7.90;99.90;;;;;;4871811;29;20043;-59
2021/12/30 00:27:01;;;;;;;44.88;6.00;;;7.90;99.90;;;;;;4869348;29;20052;-59
2021/12/30 00:29:27;;;;;;;44.17;7.10;;;7.90;99.90;;;;;;4868281;29;20049;-60
2021/12/30 00:31:53;;;;;;;48.38;6.75;;;8.00;99.90;;;;;;4869549;29;20111;-59
2021/12/30 00:34:19;;;;;;;43.65;6.22;;;8.00;99.90;;;;;;4851786;29;20063;-60
2021/12/30 00:36:45;;;;;;;48.97;6.53;;;8.00;99.90;;;;;;4883383;29;20048;-60
2021/12/30 00:39:11;;;;;;;54.50;6.93;;;8.00;99.90;;;;;;4866081;29;20052;-58
2021/12/30 00:41:37;;;;;;;46.15;6.25;;;8.00;99.90;;;;;;4886828;29;20044;-60
2021/12/30 00:44:03;;;;;;;49.38;7.05;;;8.00;99.90;;;;;;4886061;29;20053;-59
2021/12/30 00:46:29;;;;;;;55.75;6.57;;;8.00;99.90;;;;;;4884440;29;20053;-59
2021/12/30 00:48:54;;;;;;;49.53;7.22;;;8.10;99.90;;;;;;4865056;29;21016;-59
2021/12/30 00:51:20;;;;;;;50.28;7.57;;;8.10;99.90;;;;;;4877825;29;20092;-59
2021/12/30 00:53:46;;;;;;;46.22;6.60;;;8.20;99.90;;;;;;4884163;29;20091;-59
2021/12/30 00:56:12;;;;;;;52.00;7.05;;;8.10;99.90;;;;;;4885282;29;20049;-60
2021/12/30 00:58:38;;;;;;;47.97;7.45;;;8.00;99.90;;;;;;4882784;29;20100;-59
2021/12/30 01:01:05;;;;;;;50.60;7.72;;;8.10;99.90;;;;;;4861457;29;20052;-59
2021/12/30 01:03:31;;;;;;;61.42;7.78;;;8.00;99.90;;;;;;4885825;29;20473;-59
2021/12/30 01:05:58;;;;;;;50.60;7.63;;;8.00;99.90;;;;;;4869649;29;20060;-58
2021/12/30 01:08:24;;;;;;;52.90;8.20;;;8.00;99.90;;;;;;4882619;29;20536;-58
2021/12/30 01:10:50;;;;;;;51.08;7.40;;;8.00;99.90;;;;;;4884943;29;20544;-60
2021/12/30 01:13:22;;;;;;;53.28;8.02;;;8.00;99.90;;;;;;4867676;29;20531;-59
2021/12/30 01:15:58;;;;;;;52.58;7.63;;;7.90;99.90;;;;;;4885151;29;20056;-60
2021/12/30 01:21:00;;;;;;;56.95;8.00;;;7.90;99.90;;;;;;4885921;29;20048;-59
2021/12/30 01:23:26;;;;;;;54.40;7.18;;;7.80;99.90;;;;;;4883636;29;20074;-60
2021/12/30 01:25:52;;;;;;;46.65;6.90;;;7.80;99.90;;;;;;4885134;29;20056;-59
2021/12/30 01:28:18;;;;;;;51.25;7.70;;;7.80;99.90;;;;;;4883183;29;20453;-60
2021/12/30 01:30:45;;;;;;;60.05;8.93;;;7.70;99.90;;;;;;4869637;29;20056;-59
2021/12/30 01:33:11;;;;;;;50.30;8.57;;;7.80;99.90;;;;;;4867299;29;20064;-60
2021/12/30 01:35:37;;;;;;;53.15;8.48;;;7.80;99.90;;;;;;4869160;29;20049;-60
2021/12/30 01:38:03;;;;;;;49.05;7.18;;;7.70;99.90;;;;;;4882033;29;20052;-59
2021/12/30 01:40:30;;;;;;;52.85;8.02;;;7.70;99.90;;;;;;4885162;29;20076;-59
2021/12/30 01:42:56;;;;;;;57.83;7.90;;;7.70;99.90;;;;;;4867271;29;20050;-59
2021/12/30 01:45:22;;;;;;;51.88;7.43;;;7.60;99.90;;;;;;4869382;29;20049;-60
2021/12/30 01:47:54;;;;;;;57.20;7.53;;;7.60;99.90;;;;;;4882668;29;20057;-59
2021/12/30 01:50:22;;;;;;;53.38;7.55;;;7.50;99.90;;;;;;4883034;29;20048;-59
2021/12/30 01:52:48;;;;;;;42.95;7.10;;;7.50;99.90;;;;;;4865040;29;20051;-59
2021/12/30 01:55:15;;;;;;;45.83;7.43;;;7.50;99.90;;;;;;4868123;29;20140;-60
2021/12/30 01:57:41;;;;;;;48.80;7.65;;;7.50;99.90;;;;;;4859134;29;20083;-58
2021/12/30 02:00:12;;;;;;;49.75;7.55;;;7.40;99.90;;;;;;4880393;29;20438;-59
2021/12/30 02:02:38;;;;;;;49.00;7.13;;;7.40;99.90;;;;;;4857759;29;20049;-60
2021/12/30 02:05:04;;;;;;;53.22;7.45;;;7.40;99.90;;;;;;4866838;29;20050;-59
2021/12/30 02:07:30;;;;;;;53.63;7.55;;;7.50;99.90;;;;;;4879986;29;20052;-60
2021/12/30 02:10:01;;;;;;;57.75;7.50;;;7.40;99.90;;;;;;4866320;29;20053;-62
2021/12/30 02:12:30;;;;;;;65.03;9.50;;;7.40;99.90;;;;;;4860158;29;20050;-61
2021/12/30 02:14:56;;;;;;;44.20;7.97;;;7.40;99.90;;;;;;4864869;29;20143;-61
2021/12/30 02:17:22;;;;;;;54.63;8.48;;;7.30;99.90;;;;;;4867249;29;20151;-62
2021/12/30 02:19:47;;;;;;;55.55;8.70;;;7.40;99.90;;;;;;4881834;29;20059;-61
2021/12/30 02:22:13;;;;;;;61.88;8.52;;;7.30;99.90;;;;;;4868039;29;20053;-61
2021/12/30 02:24:51;;;;;;;48.67;7.50;;;7.30;99.90;;;;;;4866934;29;20048;-61
2021/12/30 02:27:19;;;;;;;47.75;7.45;;;7.30;99.90;;;;;;4847616;29;20045;-61
2021/12/30 02:29:45;;;;;;;50.30;7.35;;;7.40;99.90;;;;;;4866103;29;20052;-62
2021/12/30 02:32:11;;;;;;;50.25;7.25;;;7.40;99.90;;;;;;4866690;29;20048;-62
2021/12/30 02:34:38;;;;;;;49.53;7.90;;;7.30;99.90;;;;;;4867250;29;20454;-61
2021/12/30 02:37:05;;;;;;;42.67;6.88;;;7.30;99.90;;;;;;4881649;29;20044;-62
2021/12/30 02:39:31;;;;;;;46.58;7.70;;;7.30;99.90;;;;;;4862119;29;20159;-62
2021/12/30 02:41:57;;;;;;;52.47;7.82;;;7.30;99.90;;;;;;4883447;29;20040;-61
2021/12/30 02:44:23;;;;;;;54.72;7.82;;;7.30;99.90;;;;;;4885638;29;20040;-61
2021/12/30 02:46:53;;;;;;;43.35;6.68;;;7.20;99.90;;;;;;4882589;29;20083;-61
2021/12/30 02:49:20;;;;;;;52.65;7.43;;;7.20;99.90;;;;;;4883084;29;20104;-62
2021/12/30 02:51:46;;;;;;;48.05;7.90;;;7.20;99.90;;;;;;4869148;29;20546;-61
2021/12/30 02:54:15;;;;;;;52.95;8.10;;;7.20;99.90;;;;;;4868856;29;20283;-61
2021/12/30 02:56:46;;;;;;;57.17;8.40;;;7.20;99.90;;;;;;4886240;29;20049;-62
2021/12/30 02:59:18;;;;;;;41.60;7.82;;;7.20;99.90;;;;;;4881864;29;20091;-62
2021/12/30 03:01:43;;;;;;;59.65;8.15;;;7.20;99.90;;;;;;4886487;29;20052;-60
2021/12/30 03:04:10;;;;;;;67.88;8.02;;;7.20;99.90;;;;;;4870979;29;21586;-61
2021/12/30 03:06:36;;;;;;;64.38;8.07;;;7.20;99.90;;;;;;4886836;29;20095;-62
2021/12/30 03:09:03;;;;;;;58.13;8.02;;;7.20;99.90;;;;;;4884450;29;20060;-61
2021/12/30 03:11:29;;;;;;;60.70;8.65;;;7.20;99.90;;;;;;4864652;29;20057;-61
2021/12/30 03:13:55;;;;;;;62.63;8.85;;;7.30;99.90;;;;;;4845517;29;20563;-61
2021/12/30 03:16:29;;;;;;;62.80;8.30;;;7.20;99.90;;;;;;4884753;29;20123;-61
2021/12/30 03:18:57;;;;;;;60.75;9.02;;;7.20;99.90;;;;;;4851249;29;20053;-61
2021/12/30 03:21:24;;;;;;;61.05;9.30;;;7.20;99.90;;;;;;4885279;29;20497;-61
2021/12/30 03:23:52;;;;;;;66.38;9.20;;;7.30;99.90;;;;;;4868040;29;20087;-61
2021/12/30 03:26:19;;;;;;;57.58;9.07;;;7.30;99.90;;;;;;4871713;29;20056;-61
2021/12/30 03:28:46;;;;;;;61.83;10.35;;;7.30;99.90;;;;;;4882980;29;20052;-61
2021/12/30 03:31:14;;;;;;;74.85;10.38;;;7.30;99.90;;;;;;4870837;29;20091;-61
2021/12/30 03:33:41;;;;;;;72.88;10.90;;;7.40;99.90;;;;;;4885124;29;20053;-61
2021/12/30 03:36:08;;;;;;;75.07;10.77;;;7.40;99.90;;;;;;4886517;29;20052;-61
2021/12/30 03:38:37;;;;;;;73.45;11.35;;;7.40;99.90;;;;;;4867222;29;20037;-62
2021/12/30 03:41:06;;;;;;;72.22;11.35;;;7.50;99.90;;;;;;4870553;29;20535;-62
2021/12/30 03:43:32;;;;;;;91.05;12.98;;;7.50;99.90;;;;;;4885512;29;20465;-62
2021/12/30 03:45:58;;;;;;;74.13;12.52;;;7.50;99.90;;;;;;4868325;29;20052;-62
2021/12/30 03:48:31;;;;;;;78.53;12.00;;;7.60;99.90;;;;;;4864680;29;20103;-62
2021/12/30 03:50:57;;;;;;;62.78;11.43;;;7.60;99.90;;;;;;4886460;29;20044;-61
2021/12/30 03:53:23;;;;;;;66.45;12.75;;;7.60;99.90;;;;;;4879701;29;20111;-60
2021/12/30 03:55:51;;;;;;;75.30;12.70;;;7.60;99.90;;;;;;4887179;29;20040;-61
2021/12/30 03:58:18;;;;;;;70.22;12.98;;;7.60;99.90;;;;;;4848056;29;20587;-61
2021/12/30 04:00:44;;;;;;;82.35;13.38;;;7.70;99.90;;;;;;4881583;29;20044;-61
2021/12/30 04:03:09;;;;;;;80.50;13.38;;;7.60;99.90;;;;;;4867717;29;20048;-61
2021/12/30 04:05:35;;;;;;;82.55;14.50;;;7.70;99.90;;;;;;4885109;29;20071;-60
2021/12/30 04:08:02;;;;;;;82.82;14.88;;;7.70;99.90;;;;;;4866712;29;20056;-61
2021/12/30 04:10:28;;;;;;;84.93;16.08;;;7.80;99.90;;;;;;4885646;29;20047;-60
2021/12/30 04:12:53;;;;;;;82.40;15.63;;;7.80;99.90;;;;;;4862672;29;20049;-61
2021/12/30 04:15:20;;;;;;;69.05;14.68;;;7.90;99.90;;;;;;4870395;29;20171;-61
2021/12/30 04:17:46;;;;;;;82.05;16.13;;;7.90;99.90;;;;;;4884413;29;20461;-61
2021/12/30 04:20:15;;;;;;;72.35;14.23;;;7.90;99.90;;;;;;4860314;29;20060;-61
2021/12/30 04:22:41;;;;;;;74.38;14.73;;;7.90;99.90;;;;;;4870206;29;20091;-61
2021/12/30 04:25:09;;;;;;;84.28;14.35;;;7.90;99.90;;;;;;4887766;29;20412;-59
2021/12/30 04:27:36;;;;;;;83.65;15.95;;;7.90;99.90;;;;;;4864831;29;20065;-59
2021/12/30 04:30:04;;;;;;;74.82;15.18;;;7.90;99.90;;;;;;4851150;29;20127;-62
2021/12/30 04:32:30;;;;;;;73.78;14.65;;;7.90;99.90;;;;;;4881643;29;20568;-61
2021/12/30 04:34:56;;;;;;;72.80;13.18;;;7.90;99.90;;;;;;4882887;29;20052;-61
2021/12/30 04:37:21;;;;;;;90.53;13.82;;;7.90;99.90;;;;;;4866699;29;20071;-62
2021/12/30 04:39:47;;;;;;;83.35;14.23;;;8.00;99.90;;;;;;4880892;29;20048;-60
2021/12/30 04:42:13;;;;;;;70.78;13.57;;;8.00;99.90;;;;;;4865911;29;20063;-61
2021/12/30 04:44:39;;;;;;;90.47;14.15;;;8.00;99.90;;;;;;4885234;29;20055;-61
2021/12/30 04:47:05;;;;;;;86.40;15.02;;;8.10;99.90;;;;;;4869608;29;20135;-62
2021/12/30 04:49:31;;;;;;;87.57;15.23;;;8.10;99.90;;;;;;4882861;29;20044;-62
2021/12/30 04:51:56;;;;;;;90.60;15.27;;;8.10;99.90;;;;;;4883588;29;20045;-61
2021/12/30 04:54:22;;;;;;;92.00;14.15;;;8.10;99.90;;;;;;4854965;29;20037;-61
2021/12/30 04:56:49;;;;;;;82.10;15.05;;;8.20;99.90;;;;;;4866650;29;20603;-62
2021/12/30 04:59:15;;;;;;;89.47;14.13;;;8.20;99.90;;;;;;4883869;29;20108;-61
2021/12/30 05:01:40;;;;;;;102.88;15.35;;;8.20;99.90;;;;;;4886462;29;20048;-62
2021/12/30 05:04:06;;;;;;;98.75;15.07;;;8.20;99.90;;;;;;4866994;29;20465;-61
2021/12/30 05:06:34;;;;;;;107.38;17.08;;;8.30;99.90;;;;;;4881574;29;20052;-62
2021/12/30 05:09:00;;;;;;;115.15;17.95;;;8.30;99.90;;;;;;4867867;29;20052;-62
2021/12/30 05:11:26;;;;;;;100.43;18.70;;;8.40;99.90;;;;;;4868550;29;20044;-62
2021/12/30 05:13:52;;;;;;;99.07;17.88;;;8.40;99.90;;;;;;4881250;29;20044;-62
2021/12/30 05:16:18;;;;;;;121.30;21.08;;;8.50;99.90;;;;;;4867992;29;20127;-61
2021/12/30 05:18:44;;;;;;;143.30;21.75;;;8.50;99.90;;;;;;4841352;29;20648;-62
2021/12/30 05:21:10;;;;;;;125.88;21.42;;;8.70;99.90;;;;;;4870111;29;20059;-62
2021/12/30 05:23:38;;;;;;;123.47;23.10;;;8.70;99.90;;;;;;4864826;29;20052;-61
2021/12/30 05:26:04;;;;;;;130.00;24.95;;;8.80;99.90;;;;;;4884195;29;20053;-62
2021/12/30 05:28:30;;;;;;;153.02;25.77;;;8.90;99.90;;;;;;4875008;29;20056;-61
2021/12/30 05:30:56;;;;;;;146.38;27.83;;;8.90;99.90;;;;;;4869405;29;20145;-61
2021/12/30 05:33:22;;;;;;;158.88;27.48;;;9.00;99.90;;;;;;4865735;29;20041;-61
2021/12/30 05:35:48;;;;;;;138.02;27.90;;;9.10;99.90;;;;;;4882865;29;20056;-62
2021/12/30 05:38:17;;;;;;;159.38;29.88;;;9.10;99.90;;;;;;4865238;29;20516;-61
2021/12/30 05:40:43;;;;;;;159.63;30.08;;;9.20;99.90;;;;;;4867966;29;20048;-61
2021/12/30 05:43:09;;;;;;;140.20;29.88;;;9.20;99.90;;;;;;4881973;29;20045;-60
2021/12/30 05:45:35;;;;;;;153.85;30.60;;;9.30;99.90;;;;;;4868648;29;20068;-62
2021/12/30 05:48:01;;;;;;;166.10;29.88;;;9.30;99.90;;;;;;4868028;29;20056;-61
2021/12/30 05:50:31;;;;;;;163.93;30.58;;;9.30;99.90;;;;;;4867460;29;20048;-62
2021/12/30 05:52:57;;;;;;;145.73;30.05;;;9.30;99.90;;;;;;4880275;29;20072;-62
2021/12/30 05:55:23;;;;;;;151.40;29.75;;;9.40;99.90;;;;;;4884751;29;20155;-62
2021/12/30 05:57:51;;;;;;;132.10;28.42;;;9.40;99.90;;;;;;4865172;29;20049;-61
2021/12/30 06:00:19;;;;;;;102.82;26.10;;;9.50;99.90;;;;;;4864166;29;20064;-61
2021/12/30 06:02:46;;;;;;;122.45;26.08;;;9.50;99.90;;;;;;4882281;29;20059;-62
2021/12/30 06:05:12;;;;;;;109.18;24.65;;;9.50;99.90;;;;;;4869805;29;20099;-62
2021/12/30 06:07:38;;;;;;;108.18;24.42;;;9.60;99.90;;;;;;4863457;29;20849;-62
2021/12/30 06:10:05;;;;;;;86.35;22.65;;;9.60;99.90;;;;;;4866904;29;20059;-62
2021/12/30 06:12:30;;;;;;;101.28;22.83;;;9.60;99.90;;;;;;4866093;29;20073;-60
2021/12/30 06:14:57;;;;;;;79.28;22.05;;;9.70;99.90;;;;;;4845386;29;20064;-60
2021/12/30 06:17:23;;;;;;;81.40;21.77;;;9.70;99.90;;;;;;4866648;29;20556;-60
2021/12/30 06:19:49;;;;;;;72.47;20.48;;;9.70;99.90;;;;;;4867186;29;20511;-61
2021/12/30 06:22:16;;;;;;;67.80;19.85;;;9.70;99.90;;;;;;4867406;29;20161;-58
2021/12/30 06:24:42;;;;;;;73.57;19.52;;;9.70;99.90;;;;;;4852863;29;20834;-59
2021/12/30 06:27:09;;;;;;;72.53;20.35;;;9.80;99.90;;;;;;4863130;29;20052;-60
2021/12/30 06:29:35;;;;;;;69.25;20.02;;;9.70;99.90;;;;;;4867672;29;20041;-60
2021/12/30 06:32:01;;;;;;;69.80;20.08;;;9.80;99.90;;;;;;4864343;29;20432;-60
2021/12/30 06:34:27;;;;;;;78.43;21.48;;;9.80;99.90;;;;;;4872074;29;20107;-60
2021/12/30 06:36:53;;;;;;;75.30;21.77;;;9.80;99.90;;;;;;4863474;29;20061;-60
2021/12/30 06:39:19;;;;;;;87.00;22.42;;;9.80;99.90;;;;;;4870198;29;20515;-58
2021/12/30 06:41:45;;;;;;;86.70;22.67;;;9.80;99.90;;;;;;4888434;29;20112;-60
2021/12/30 06:44:10;;;;;;;107.68;23.83;;;9.90;99.90;;;;;;4851293;29;20405;-60
2021/12/30 06:46:36;;;;;;;109.50;23.92;;;9.90;99.90;;;;;;4871259;29;20056;-60
2021/12/30 06:49:09;;;;;;;113.80;24.65;;;9.90;99.90;;;;;;4853766;29;20535;-60
2021/12/30 06:51:35;;;;;;;107.28;25.42;;;9.90;99.90;;;;;;4888849;29;20044;-60
2021/12/30 06:54:05;;;;;;;114.40;25.10;;;9.90;99.90;;;;;;4884309;29;20421;-60
2021/12/30 06:56:31;;;;;;;105.03;24.17;;;10.00;99.90;;;;;;4871136;29;20095;-60
2021/12/30 06:58:57;;;;;;;113.13;24.52;;;10.00;99.90;;;;;;4868202;29;20057;-60
2021/12/30 07:01:23;;;;;;;119.55;24.95;;;10.10;99.90;;;;;;4871075;29;20052;-60
2021/12/30 07:03:49;;;;;;;113.15;24.30;;;10.10;99.90;;;;;;4870510;29;20449;-60
2021/12/30 07:06:15;;;;;;;95.53;22.27;;;10.10;99.90;;;;;;4872047;29;20049;-60
2021/12/30 07:08:41;;;;;;;104.35;23.05;;;10.10;99.90;;;;;;4869059;29;20060;-60
2021/12/30 07:11:07;;;;;;;93.38;21.30;;;10.10;99.90;;;;;;4872040;29;20059;-60
2021/12/30 07:13:33;;;;;;;86.28;20.42;;;10.10;99.90;;;;;;4888427;29;20457;-60
2021/12/30 07:15:59;;;;;;;79.90;19.05;;;10.10;99.90;;;;;;4867862;29;20057;-60
2021/12/30 07:18:25;;;;;;;79.65;20.02;;;10.20;99.90;;;;;;4866580;29;20087;-60
2021/12/30 07:20:51;;;;;;;79.70;19.17;;;10.20;99.90;;;;;;4872012;29;20523;-60
2021/12/30 07:23:17;;;;;;;71.05;17.88;;;10.20;99.90;;;;;;4887636;29;20634;-60
2021/12/30 07:25:43;;;;;;;69.93;17.65;;;10.20;99.90;;;;;;4873028;29;20060;-61
2021/12/30 07:28:09;;;;;;;71.03;17.55;;;10.20;99.90;;;;;;4871350;29;20071;-60
2021/12/30 07:30:34;;;;;;;68.40;16.30;;;10.30;99.90;;;;;;4870582;29;20060;-60
2021/12/30 07:33:05;;;;;;;56.80;15.88;;;10.30;99.90;;;;;;4855416;29;20062;-60
2021/12/30 07:35:34;;;;;;;56.22;14.32;;;10.30;99.90;;;;;;4877535;29;20057;-61
2021/12/30 07:38:00;;;;;;;51.40;14.48;;;10.30;99.90;;;;;;4885804;29;20496;-61
2021/12/30 07:40:26;;;;;;;50.50;13.25;;;10.30;99.90;;;;;;4879063;29;20051;-60
2021/12/30 07:42:52;;;;;;;53.90;14.10;;;10.30;99.90;;;;;;4887118;29;20475;-61
2021/12/30 07:45:18;;;;;;;40.78;13.77;;;10.30;99.90;;;;;;4886381;29;20052;-60
2021/12/30 07:47:45;;;;;;;44.97;12.85;;;10.30;99.90;;;;;;4871044;29;20575;-60
2021/12/30 07:50:12;;;;;;;35.60;11.25;;;10.40;99.90;;;;;;4888737;29;20522;-61
2021/12/30 07:52:39;;;;;;;38.97;11.80;;;10.40;99.90;;;;;;4861284;29;20048;-60
2021/12/30 07:55:10;;;;;;;36.53;11.77;;;10.40;99.90;;;;;;4872810;29;20204;-60
2021/12/30 07:57:37;;;;;;;37.42;11.43;;;10.40;99.90;;;;;;4872543;29;20041;-60
2021/12/30 08:00:06;;;;;;;34.38;10.85;;;10.50;99.90;;;;;;4872642;29;20472;-60
2021/12/30 08:02:32;;;;;;;36.15;11.15;;;10.50;99.90;;;;;;4872429;29;20120;-60
2021/12/30 08:04:58;;;;;;;26.88;10.05;;;10.50;99.90;;;;;;4885143;29;20115;-61
2021/12/30 08:07:24;;;;;;;26.05;9.80;;;10.50;99.90;;;;;;4858800;29;20052;-60
2021/12/30 08:09:51;;;;;;;27.40;10.60;;;10.50;99.90;;;;;;4892261;29;20052;-61
2021/12/30 08:12:16;;;;;;;19.75;9.02;;;10.50;99.90;;;;;;4875250;29;20060;-61
2021/12/30 08:14:43;;;;;;;17.65;8.75;;;10.50;99.90;;;;;;4859204;29;20496;-60
2021/12/30 08:17:09;;;;;;;16.63;7.75;;;10.50;99.90;;;;;;4872204;29;20462;-61
2021/12/30 08:19:35;;;;;;;17.00;8.02;;;10.50;99.90;;;;;;4887375;29;20560;-60
2021/12/30 08:22:02;;;;;;;17.90;8.50;;;10.50;99.90;;;;;;4851008;29;20049;-61
2021/12/30 08:24:29;;;;;;;14.70;7.88;;;10.60;99.90;;;;;;4887748;29;20162;-61
2021/12/30 08:26:58;;;;;;;14.98;7.78;;;10.60;99.90;;;;;;4886580;29;20053;-61
2021/12/30 08:29:31;;;;;;;11.77;6.82;;;10.70;99.90;;;;;;4884854;29;20515;-61
2021/12/30 08:31:57;;;;;;;;;;;10.60;99.90;;;;;;4882832;29;20052;-60
2021/12/30 08:34:23;;;;;;;14.40;7.00;;;10.70;99.90;;;;;;4888112;29;19959;-60
2021/12/30 08:36:49;;;;;;;12.05;6.50;;;10.70;99.90;;;;;;4887937;29;20468;-60
2021/12/30 08:39:15;;;;;;;15.00;7.43;;;10.70;99.90;;;;;;4866042;29;20055;-61
2021/12/30 08:41:41;;;;;;;12.30;6.63;;;10.70;99.90;;;;;;4867477;29;20109;-61
2021/12/30 08:44:07;;;;;;;14.45;8.27;;;10.80;99.90;;;;;;4874074;29;20412;-60
2021/12/30 08:46:32;;;;;;;24.00;9.15;;;10.80;99.90;;;;;;4889198;29;20071;-61
2021/12/30 08:48:58;;;;;;;20.38;10.02;;;10.80;99.90;;;;;;4887378;29;20387;-61
2021/12/30 08:51:24;;;;;;;24.27;10.05;;;10.90;99.90;;;;;;4873772;29;20135;-61
2021/12/30 08:53:50;;;;;;;29.05;10.80;;;10.90;99.90;;;;;;4874243;29;20052;-60
2021/12/30 08:56:17;;;;;;;25.15;10.13;;;10.90;99.90;;;;;;4891089;29;20052;-60
2021/12/30 08:58:43;;;;;;;19.23;9.20;;;11.00;99.90;;;;;;4875584;29;20044;-61
2021/12/30 09:01:09;;;;;;;24.85;9.13;;;11.00;99.90;;;;;;4873615;29;20614;-60
2021/12/30 09:03:35;;;;;;;18.88;8.85;;;11.00;99.90;;;;;;4890824;29;20485;-60
2021/12/30 09:06:01;;;;;;;22.85;8.85;;;11.10;99.90;;;;;;4854265;29;20141;-59
2021/12/30 09:08:26;;;;;;;20.95;7.93;;;11.10;99.90;;;;;;4885307;29;20138;-61
2021/12/30 09:10:52;;;;;;;21.77;7.28;;;11.00;99.90;;;;;;4887543;29;20083;-60
2021/12/30 09:13:19;;;;;;;19.33;6.75;;;11.10;99.90;;;;;;4870153;29;20257;-60
2021/12/30 09:15:46;;;;;;;18.30;6.70;;;11.10;99.90;;;;;;4885866;29;20044;-60
2021/12/30 09:18:12;;;;;;;21.02;7.07;;;11.10;99.90;;;;;;4861740;29;20067;-60
2021/12/30 09:20:40;;;;;;;22.67;7.20;;;11.10;99.90;;;;;;4856745;29;20522;-61
2021/12/30 09:23:09;;;;;;;19.55;7.03;;;11.10;99.90;;;;;;4865906;29;20055;-60
2021/12/30 09:25:37;;;;;;;21.88;7.50;;;11.10;99.90;;;;;;4880940;29;20060;-60
2021/12/30 09:28:03;;;;;;;20.52;7.25;;;11.10;99.90;;;;;;4880305;29;20055;-60
2021/12/30 09:30:30;;;;;;;21.33;7.18;;;11.10;99.90;;;;;;4882244;29;20047;-60
2021/12/30 09:32:59;;;;;;;21.45;7.10;;;11.10;99.90;;;;;;4868844;29;20373;-60
2021/12/30 09:35:26;;;;;;;19.23;6.75;;;11.10;99.90;;;;;;4883293;29;20340;-61
2021/12/30 09:37:52;;;;;;;22.42;6.50;;;11.10;99.90;;;;;;4862253;29;20052;-60
2021/12/30 09:40:19;;;;;;;20.38;7.25;;;11.20;99.90;;;;;;4877930;29;20044;-61
2021/12/30 09:42:50;;;;;;;17.88;6.72;;;11.20;99.90;;;;;;4868427;29;20127;-60
2021/12/30 09:45:17;;;;;;;27.13;6.65;;;11.20;99.90;;;;;;4868363;29;20599;-63
2021/12/30 09:47:53;;;;;;;24.17;7.20;;;11.20;99.90;;;;;;4863291;29;20048;-61
2021/12/30 09:50:20;;;;;;;27.23;6.95;;;11.20;99.90;;;;;;4864230;29;20143;-61
2021/12/30 09:52:46;;;;;;;27.75;7.68;;;11.20;99.90;;;;;;4881099;29;20124;-59
2021/12/30 09:55:12;;;;;;;22.38;7.25;;;11.20;99.90;;;;;;4865943;29;20088;-61
2021/12/30 09:57:40;;;;;;;28.88;7.63;;;11.20;99.90;;;;;;4866724;29;20057;-60
2021/12/30 10:00:10;;;;;;;31.02;7.80;;;11.20;99.90;;;;;;4877402;29;20123;-61
2021/12/30 10:02:36;;;;;;;32.20;7.40;;;11.20;99.90;;;;;;4845144;29;20056;-59
2021/12/30 10:05:09;;;;;;;30.17;8.00;;;11.20;99.90;;;;;;4863357;29;20496;-61
2021/12/30 10:07:35;;;;;;;29.00;7.53;;;11.30;99.90;;;;;;4852862;29;20535;-61
2021/12/30 10:10:03;;;;;;;32.75;7.55;;;11.30;99.90;;;;;;4850975;29;20140;-60
2021/12/30 10:12:39;;;;;;;32.40;7.40;;;11.30;99.90;;;;;;4840244;29;20057;-60
2021/12/30 10:15:06;;;;;;;23.45;7.45;;;11.30;99.90;;;;;;4859478;29;20132;-61
2021/12/30 10:17:32;;;;;;;36.05;7.95;;;11.40;99.90;;;;;;4867898;29;20167;-61
2021/12/30 10:20:24;;;;;;;35.10;6.68;;;11.40;99.90;;;;;;4863333;29;22166;-59
2021/12/30 10:22:50;;;;;;;29.85;7.35;;;11.40;99.90;;;;;;4882453;29;20760;-60
2021/12/30 10:25:27;;;;;;;35.78;6.20;;;11.40;99.90;;;;;;4882384;29;20041;-61
2021/12/30 10:27:53;;;;;;;35.67;6.65;;;11.40;99.90;;;;;;4883344;29;20072;-61
2021/12/30 10:30:34;;;;;;;32.63;6.15;;;11.40;99.90;;;;;;4884700;29;20523;-61
2021/12/30 10:33:11;;;;;;;34.05;6.38;;;11.50;99.90;;;;;;4883997;29;20053;-61
2021/12/30 10:35:38;;;;;;;37.45;6.43;;;11.50;99.90;;;;;;4881023;29;20176;-60
2021/12/30 10:38:09;;;;;;;33.83;6.15;;;11.50;99.90;;;;;;4868898;29;20508;-61
2021/12/30 10:40:37;;;;;;;31.70;5.80;;;11.50;99.90;;;;;;4867102;29;20199;-60
2021/12/30 10:43:32;;;;;;;30.75;6.03;;;11.50;99.90;;;;;;4883918;29;20556;-61
2021/12/30 10:46:00;;;;;;;28.58;5.20;;;11.50;99.90;;;;;;4866974;29;20057;-61
2021/12/30 10:48:26;;;;;;;32.20;7.05;;;11.50;99.90;;;;;;4884841;29;20531;-60
2021/12/30 10:51:09;;;;;;;40.45;6.68;;;11.50;99.90;;;;;;4866891;29;20124;-60
2021/12/30 10:53:37;;;;;;;43.33;6.03;;;11.50;99.90;;;;;;4868184;29;20053;-61
2021/12/30 10:56:20;;;;;;;35.00;6.65;;;11.50;99.90;;;;;;4867041;29;20509;-60
2021/12/30 10:58:46;;;;;;;25.88;6.07;;;11.50;99.90;;;;;;4863872;29;20548;-60
2021/12/30 11:01:17;;;;;;;30.60;6.43;;;11.50;99.90;;;;;;4884641;29;20100;-61
2021/12/30 11:03:58;;;;;;;34.78;6.75;;;11.50;99.90;;;;;;4868698;29;20493;-61
2021/12/30 11:06:24;;;;;;;39.63;6.90;;;11.50;99.90;;;;;;4884607;29;20053;-60
2021/12/30 11:09:09;;;;;;;40.80;7.25;;;11.50;99.90;;;;;;4880650;29;20041;-60
2021/12/30 11:11:35;;;;;;;33.78;7.10;;;11.50;99.90;;;;;;4888349;29;20095;-61
2021/12/30 11:14:04;;;;;;;48.50;7.82;;;11.50;99.90;;;;;;4871452;29;20505;-61
2021/12/30 11:16:30;;;;;;;49.13;7.32;;;11.50;99.90;;;;;;4880157;29;20087;-61
2021/12/30 11:18:57;;;;;;;46.78;7.85;;;11.50;99.90;;;;;;4858716;29;20628;-61
2021/12/30 11:21:41;;;;;;;50.72;8.40;;;11.60;99.90;;;;;;4862032;29;20497;-60
2021/12/30 11:24:08;;;;;;;45.08;7.53;;;11.60;99.90;;;;;;4880376;29;20052;-60
2021/12/30 11:26:34;;;;;;;53.55;7.93;;;11.60;99.90;;;;;;4880323;29;20049;-59
2021/12/30 11:29:01;;;;;;;53.88;8.32;;;11.60;99.90;;;;;;4870918;29;20055;-61
2021/12/30 11:31:29;;;;;;;49.20;8.00;;;11.60;99.90;;;;;;4869891;29;20954;-61
2021/12/30 11:33:55;;;;;;;51.70;9.40;;;11.70;99.90;;;;;;4872521;29;20412;-60
2021/12/30 11:36:21;;;;;;;55.97;9.00;;;11.60;99.90;;;;;;4885465;29;20053;-61
2021/12/30 11:38:47;;;;;;;52.15;7.80;;;11.60;99.90;;;;;;4854610;29;20048;-61
2021/12/30 11:41:21;;;;;;;53.35;9.00;;;11.70;99.90;;;;;;4886727;29;20072;-60
2021/12/30 11:43:49;;;;;;;52.95;9.30;;;11.70;99.90;;;;;;4879744;29;20135;-60
2021/12/30 11:46:38;;;;;;;51.38;8.88;;;11.70;99.90;;;;;;4886190;29;20092;-60
2021/12/30 11:49:08;;;;;;;51.92;9.18;;;11.70;99.90;;;;;;4884767;29;20504;-60
2021/12/30 11:51:49;;;;;;;66.45;9.35;;;11.70;99.90;;;;;;4887238;29;20053;-61
2021/12/30 11:54:40;;;;;;;51.67;8.85;;;11.70;99.90;;;;;;4886638;29;20174;-61
2021/12/30 11:57:34;;;;;;;50.40;9.45;;;11.70;99.90;;;;;;4866458;29;20087;-61
2021/12/30 12:00:32;;;;;;;47.05;8.90;;;11.70;99.90;;;;;;4871948;29;20547;-62
2021/12/30 12:03:02;;;;;;;48.95;9.38;;;11.80;99.90;;;;;;4888144;29;20048;-61
2021/12/30 12:05:41;;;;;;;51.42;7.40;;;11.80;99.90;;;;;;4863605;29;20049;-60
2021/12/30 12:08:11;;;;;;;57.92;9.02;;;11.80;99.90;;;;;;4884301;29;20059;-61
2021/12/30 12:10:39;;;;;;;47.88;8.40;;;11.80;99.90;;;;;;4884779;29;20135;-61
2021/12/30 12:13:30;;;;;;;51.55;8.18;;;11.80;99.90;;;;;;4869274;29;20048;-60
2021/12/30 12:16:00;;;;;;;50.83;7.40;;;11.80;99.90;;;;;;4867176;29;20104;-61
2021/12/30 12:18:26;;;;;;;44.80;8.48;;;11.80;99.90;;;;;;4886035;29;20098;-60
2021/12/30 12:20:54;;;;;;;46.33;8.05;;;11.80;99.90;;;;;;4866261;29;20051;-61
2021/12/30 12:23:42;;;;;;;52.83;8.65;;;11.80;99.90;;;;;;4867280;29;20057;-61
2021/12/30 12:26:14;;;;;;;52.90;8.27;;;11.80;99.90;;;;;;4852979;29;20060;-61
2021/12/30 12:28:41;;;;;;;52.85;7.68;;;11.80;99.90;;;;;;4886759;29;20481;-60
2021/12/30 12:31:10;;;;;;;47.05;8.13;;;11.80;99.90;;;;;;4884370;29;20048;-61
2021/12/30 12:33:40;;;;;;;52.40;8.02;;;11.80;99.90;;;;;;4879393;29;20044;-60
2021/12/30 12:36:18;;;;;;;45.22;8.40;;;11.80;99.90;;;;;;4880774;29;20508;-61
2021/12/30 12:38:49;;;;;;;49.30;8.02;;;11.90;99.90;;;;;;4869098;29;20072;-61
2021/12/30 12:41:25;;;;;;;47.60;7.45;;;11.80;99.90;;;;;;4887328;29;20045;-60
2021/12/30 12:44:01;;;;;;;51.03;8.30;;;11.90;99.90;;;;;;4869036;29;20123;-61